• Join FlightAware (Why Join?)
  • Login
  • US Flag 
06:03PM EDT


 

Airport Tracker/Info


-or-


 

Live Flight TrackerFlight Track Log ✈ SWA1969 ✈ 15-Apr-2013 ✈ KDAL - KMCI

Flight Track Log - Related Links

Times and Time Zones

All times are in EDT time to prevent confusion due to time zone crossing. See the SWA1969 flight status page for this flight to view local times or setup timezone preferences in your user account.

Time Position Orientation Groundspeed Altitude Reporting Facility
EDT Latitude Longitude Course Direction KTS MPH feet Rate Location/Type
09:04AM 32.8000 -96.8000 16° North 209 241 3,000  Level Dallas / Fort Worth TRACON
09:07AM 32.9192 -96.7378 24° Northeast 209 241 9,400 2,400 Climbing Fort Worth Center
09:08AM 32.9864 -96.7869 328° Northwest 235 270 11,200 2,580 Climbing Fort Worth Center
09:09AM 33.0783 -96.8506 330° Northwest 322 371 14,600 2,700 Climbing Fort Worth Center
09:10AM 33.4344 -96.6552 16° North  Level FlightAware Approximate
09:10AM 33.1664 -96.9122 330° Northwest 357 411 16,600  Level Fort Worth Center
09:11AM 33.2500 -96.9714 329° Northwest 380 437 19,100 2,580 Climbing Fort Worth Center
09:12AM 33.3608 -97.0453 331° Northwest 402 463 21,800 2,460 Climbing Fort Worth Center
09:13AM 33.4675 -97.0400 North 408 470 24,100 1,980 Climbing Fort Worth Center
09:14AM 33.5989 -97.0044 13° North 419 482 25,800 1,500 Climbing Fort Worth Center
09:15AM 33.7258 -96.9664 14° North 447 514 27,100 1,320 Climbing Fort Worth Center
09:16AM 33.8511 -96.9208 17° North 467 537 28,500 900 Climbing Fort Worth Center
09:17AM 33.9717 -96.8350 31° Northeast 488 562 29,000 1,020 Climbing Fort Worth Center
09:18AM 34.1008 -96.7789 20° North 488 562 30,600 1,740 Climbing Fort Worth Center
09:19AM 34.2239 -96.7478 12° North 468 539 32,500 1,560 Climbing Fort Worth Center
09:20AM 34.3531 -96.7117 13° North 463 533 33,800 1,200 Climbing Fort Worth Center
09:21AM 34.4800 -96.6778 12° North 463 533 35,000 600 Climbing Fort Worth Center
09:22AM 34.6069 -96.6414 13° North 468 539 35,000  Level Fort Worth Center
09:23AM 34.7383 -96.6050 13° North 473 544 35,000  Level Fort Worth Center
09:24AM 34.8653 -96.5683 13° North 473 544 35,000  Level Fort Worth Center
09:25AM 34.9922 -96.5342 12° North 468 539 35,000  Level Fort Worth Center
09:26AM 35.1192 -96.4972 13° North 468 539 35,000  Level Fort Worth Center
09:27AM 35.2483 -96.4628 12° North 468 539 35,000  Level Fort Worth Center
09:28AM 35.3753 -96.4258 13° North 468 539 35,000  Level Fort Worth Center
09:30AM 35.6756 -96.3406 13° North 467 537 35,000  Level Kansas City Center
09:31AM 35.7956 -96.3081 12° North 468 539 35,000  Level Kansas City Center
09:32AM 35.9239 -96.2719 13° North 469 540 35,000  Level Kansas City Center
09:33AM 36.0778 -96.2289 13° North 470 541 35,000  Level Kansas City Center
09:34AM 36.2072 -96.1922 13° North 471 542 35,000  Level Kansas City Center
09:35AM 36.3364 -96.1547 13° North 472 543 35,000  Level Kansas City Center
09:36AM 36.4653 -96.1178 13° North 472 543 35,000  Level Kansas City Center
09:37AM 36.5953 -96.0794 13° North 472 543 35,000  Level Kansas City Center
09:38AM 36.7258 -96.0428 13° North 476 548 35,000  Level Kansas City Center
09:39AM 36.8547 -96.0033 14° North 473 544 35,000  Level Kansas City Center
09:41AM 36.9836 -95.9675 13° North 472 543 35,000  Level Kansas City Center
09:42AM 37.1136 -95.9300 13° North 474 545 35,000 -300 Level Kansas City Center
09:43AM 37.2428 -95.8919 13° North 475 547 34,500 -720 Descending Kansas City Center
09:44AM 37.3669 -95.8544 13° North 465 535 33,500 -1,080 Descending Kansas City Center
09:45AM 37.5153 -95.8108 13° North 456 525 32,300 -1,260 Descending Kansas City Center
09:46AM 37.6397 -95.7739 13° North 457 526 31,000 -1,500 Descending Kansas City Center
09:47AM 37.7619 -95.7347 14° North 452 520 29,200 -1,800 Descending Kansas City Center
09:48AM 37.8789 -95.6994 13° North 436 502 27,300 -1,860 Descending Kansas City Center
09:49AM 37.9875 -95.6711 12° North 424 488 25,500 -1,800 Descending Kansas City Center
09:50AM 38.1122 -95.6317 14° North 412 474 23,600 -1,800 Descending Kansas City Center
09:51AM 38.2161 -95.6014 13° North 401 461 21,900 -1,800 Descending Kansas City Center
09:52AM 38.3331 -95.5656 14° North 389 448 20,000 -1,680 Descending Kansas City Center
09:53AM 38.4311 -95.5356 13° North 381 438 18,400 -1,740 Descending Kansas City Center
09:54AM 38.5436 -95.5019 13° North 374 430 16,400 -1,860 Descending Kansas City Center
09:55AM 38.6378 -95.4722 14° North 367 422 14,700 -1,800 Descending Kansas City Center
09:56AM 38.7431 -95.4231 20° North 364 419 12,800 -1,680 Descending Kansas City Center
09:57AM 38.8058 -95.3303 49° Northeast 360 414 11,300 -1,380 Descending Kansas City Center
09:58AM 38.8797 -95.2297 47° Northeast 348 400 10,000 -1,200 Descending Kansas City Center
09:59AM 38.9361 -95.1489 48° Northeast 322 371 8,900 -1,140 Descending Kansas City Center
10:00AM 38.9922 -95.0708 47° Northeast 313 360 7,700 -1,200 Descending Kansas City Center
10:01AM 39.0533 -94.9839 48° Northeast 296 341 6,400 -1,020 Descending Kansas City Center
10:02AM 39.1014 -94.9150 48° Northeast 274 315 5,700 -900 Descending Kansas City Center
10:03AM 39.1525 -94.8422 48° Northeast 249 287 4,600 -1,140 Descending Kansas City Center
10:04AM 39.1928 -94.7844 48° Northeast 230 265 3,400 -1,140 Descending Kansas City Center
10:05AM 39.2347 -94.7464 35° Northeast 170 196 2,400 -960 Descending Kansas City Center
10:06AM 39.2728 -94.7367 11° North 147 169 1,400 -720 Descending Kansas City Center
10:07AM 39.3186 -94.7222 14° North 162 186 1,000 -420 Descending Kansas City Center